Meteo Giornale » Osservazioni meteo Italia » Pisa-S Giusto

ore: 14:45 - Osservazioni Meteo Pisa-S Giusto
Lat. 43° 41' N Lon. 10° 23' E Alt. 2 metri s.l.m.

sereno Europe/Rome

35 °C

Sereno

Temp. 24 Ore

20 °C

35 °C

Ovest/Nord-Ovest

20.3 Km/h

Dew point 17 °C

Umidità 34 %

Visibilità  10 Km

Il sole sorge alle ore 05:37

Il sole tramonta alle ore 21:06

Data e Ora Cielo e Fenomeni T °C DP °C Um. % Pres. hPa Vis. km Vento km/h
Oggi h: 14:45 sereno Sereno 35 17 34 1018 10 O/NO 20.3
Oggi h: 14:15 sereno Sereno 35 17 34 1019 10 O/NO 18.5
Oggi h: 13:45 sereno Sereno 35 18 36 1019 10 O 20.3
Oggi h: 13:15 sereno Sereno 35 19 39 1019 10 O 16.7
Oggi h: 12:45 sereno Sereno 35 14 28 1020 10 N 3.7
Oggi h: 12:15 sereno Sereno 35 16 32 1020 10 N 5.5
Oggi h: 11:45 sereno Sereno 34 17 36 1020 10 N 3.7
Oggi h: 11:15 sereno Sereno 33 17 38 1020 10 N 3.7
Oggi h: 10:45 sereno Sereno 32 17 40 1020 10 E 7.4
Oggi h: 10:15 sereno Sereno 31 17 43 1020 10 E 7.4
Oggi h: 09:45 sereno Sereno 30 18 48 1021 10 E 7.4
Oggi h: 09:15 sereno Sereno 28 18 54 1021 10 E/NE 7.4
Oggi h: 08:45 sereno Sereno 27 20 65 1020 10 E/NE 7.4
Oggi h: 08:15 sereno Sereno 25 21 78 1020 10 N 5.5
Oggi h: 07:45 sereno Sereno 24 21 83 1020 10 N 5.5
Oggi h: 07:15 sereno Sereno 21 19 88 1020 10 N 1.8
Oggi h: 06:45 sereno Sereno 20 20 100 1020 10 N 5.5
Oggi h: 05:45 sereno Sereno 20 19 93 1020 10 E/SE 13
Oggi h: 05:15 sereno Sereno 20 19 93 1020 10 E/SE 9.3
Oggi h: 04:45 sereno Sereno 20 19 93 1020 10 E/SE 11.1
Oggi h: 04:15 sereno Sereno 21 20 94 1020 10 S/SE 7.4
Oggi h: 03:45 sereno Sereno 21 20 94 1020 10 N 3.7
Oggi h: 03:15 sereno Sereno 20 19 93 1020 10 E/SE 7.4
Oggi h: 02:45 sereno Sereno 21 20 94 1020 10 E/SE 7.4
Oggi h: 02:15 sereno Sereno 21 20 94 1020 10 N 5.5
Oggi h: 01:45 sereno Sereno 22 20 88 1020 10 N 5.5
Oggi h: 01:15 sereno Sereno 23 21 88 1021 10 N 3.7
Oggi h: 00:45 sereno Sereno 23 21 88 1021 10 N 5.5
Oggi h: 00:15 sereno Sereno 24 21 83 1021 10 N 5.5
Ieri h: 23:45 sereno Sereno 23 21 88 1021 10 N 1.8
Ieri h: 23:15 sereno Sereno 24 21 83 1020 10 N 3.7
Ieri h: 22:45 sereno Sereno 24 20 78 1020 10 N 5.5
Ieri h: 22:15 sereno Sereno 25 21 78 1020 10 S 9.3
Ieri h: 21:45 sereno Sereno 28 21 65 1020 10 N 7.4
Ieri h: 21:15 sereno Sereno 28 21 65 1019 10 NO 11.1
Ieri h: 20:45 sereno Sereno 29 21 62 1019 10 NO 14.8
Ieri h: 20:15 sereno Sereno 29 21 62 1019 10 NO 16.7
Ieri h: 19:45 sereno Sereno 31 20 52 1019 10 NO 16.7
Ieri h: 19:15 sereno Sereno 32 20 49 1019 10 NO 18.5
Ieri h: 17:45 sereno Sereno 33 21 49 1019 10 NO 20.3
Ieri h: 17:15 sereno Sereno 33 21 49 1019 10 NO 22.2
Ieri h: 16:45 sereno Sereno 33 20 46 1020 10 N/NO 24
Ieri h: 16:15 sereno Sereno 33 19 43 1020 10 NO 22.2
Ieri h: 15:45 sereno Sereno 33 19 43 1020 10 NO 20.3